createdAt,value
2017-12-17T00:00:33.313Z,86.80
2017-12-17T00:06:36.919Z,86.67
2017-12-17T00:12:41.226Z,86.86
2017-12-17T00:18:44.782Z,86.93
2017-12-17T00:24:48.288Z,86.61
2017-12-17T00:30:51.979Z,86.02
2017-12-17T00:36:56.371Z,85.95
2017-12-17T00:43:00.026Z,86.24
2017-12-17T00:49:04.447Z,85.90
2017-12-17T00:55:07.992Z,85.81
2017-12-17T01:01:11.526Z,86.90
2017-12-17T01:07:15.041Z,87.16
2017-12-17T01:13:19.394Z,87.21
2017-12-17T01:19:25.022Z,86.97
2017-12-17T01:25:29.607Z,86.85
2017-12-17T01:31:33.251Z,86.84
2017-12-17T01:37:37.529Z,87.83
2017-12-17T01:43:41.807Z,89.21
2017-12-17T01:49:46.057Z,90.35
2017-12-17T01:55:49.610Z,90.87
2017-12-17T02:01:53.390Z,90.94
2017-12-17T02:07:57.796Z,90.24
2017-12-17T02:14:01.451Z,90.39
2017-12-17T02:20:04.946Z,90.27
2017-12-17T02:26:08.688Z,89.88
2017-12-17T02:32:12.270Z,89.87
2017-12-17T02:38:15.838Z,90.09
2017-12-17T02:44:20.122Z,90.22
2017-12-17T02:50:24.733Z,89.41
2017-12-17T02:56:28.315Z,89.80
2017-12-17T03:02:32.614Z,90.80
2017-12-17T03:08:36.862Z,91.37
2017-12-17T03:14:40.351Z,91.73
2017-12-17T03:20:44.623Z,91.79
2017-12-17T03:26:48.888Z,92.09
2017-12-17T03:32:53.922Z,91.86
2017-12-17T03:38:57.451Z,92.10
2017-12-17T03:45:01.205Z,92.12
2017-12-17T03:51:05.532Z,91.41
2017-12-17T03:57:09.035Z,91.21
2017-12-17T04:03:13.534Z,90.96
2017-12-17T04:09:17.018Z,90.89
2017-12-17T04:15:20.996Z,90.51
2017-12-17T04:21:24.670Z,89.95
2017-12-17T04:27:28.961Z,90.20
2017-12-17T04:33:33.251Z,89.93
2017-12-17T04:39:37.556Z,89.85
2017-12-17T04:45:41.173Z,90.09
2017-12-17T04:51:44.804Z,90.07
2017-12-17T04:57:49.184Z,89.86
2017-12-17T05:03:53.431Z,89.95
2017-12-17T05:09:56.986Z,89.87
2017-12-17T05:16:00.721Z,89.65
2017-12-17T05:22:04.218Z,89.50
2017-12-17T05:28:07.856Z,89.62
2017-12-17T05:34:12.872Z,89.64
2017-12-17T05:40:16.401Z,89.60
2017-12-17T05:46:19.914Z,89.46
2017-12-17T05:52:23.815Z,89.70
2017-12-17T05:58:27.434Z,89.52
2017-12-17T06:04:30.995Z,89.53
2017-12-17T06:10:34.572Z,89.39
2017-12-17T06:16:38.231Z,89.13
2017-12-17T06:22:41.901Z,89.14
2017-12-17T06:28:45.399Z,89.02
2017-12-17T06:34:48.904Z,88.96
2017-12-17T06:40:52.850Z,88.92
2017-12-17T06:46:57.071Z,88.95
2017-12-17T06:53:00.612Z,89.42
2017-12-17T06:59:04.384Z,89.50
2017-12-17T07:05:09.041Z,90.01
2017-12-17T07:11:12.595Z,89.65
2017-12-17T07:17:16.094Z,89.41
2017-12-17T07:23:19.669Z,89.84
2017-12-17T07:29:24.326Z,90.86
2017-12-17T07:35:27.866Z,90.38
2017-12-17T07:41:32.133Z,90.40
2017-12-17T07:47:36.417Z,90.77
2017-12-17T07:53:40.776Z,91.02
2017-12-17T07:59:44.265Z,91.01
2017-12-17T08:05:47.759Z,91.37
2017-12-17T08:11:51.327Z,91.08
2017-12-17T08:17:55.636Z,90.98
2017-12-17T08:23:59.150Z,91.15
2017-12-17T08:30:03.423Z,91.16
2017-12-17T08:36:07.696Z,91.42
2017-12-17T08:42:11.195Z,91.51
2017-12-17T08:48:14.684Z,91.43
2017-12-17T08:54:18.528Z,91.18
2017-12-17T09:00:22.094Z,91.05
2017-12-17T09:06:25.885Z,90.70
2017-12-17T09:12:29.480Z,90.51
2017-12-17T09:18:32.996Z,89.29
2017-12-17T09:24:36.594Z,88.73
2017-12-17T09:30:40.089Z,88.91
2017-12-17T09:36:43.687Z,89.31
2017-12-17T09:42:48.070Z,88.76
2017-12-17T09:48:51.596Z,87.55
2017-12-17T09:54:55.471Z,86.67
2017-12-17T10:00:59.867Z,86.33
2017-12-17T10:07:03.451Z,86.08
2017-12-17T10:13:06.953Z,86.48
2017-12-17T10:19:11.476Z,84.84
2017-12-17T10:25:15.018Z,83.60
2017-12-17T10:31:19.529Z,82.90
2017-12-17T10:37:23.640Z,82.49
2017-12-17T10:43:27.336Z,82.67
2017-12-17T10:49:30.983Z,82.94
2017-12-17T10:55:34.789Z,80.96
2017-12-17T11:01:38.278Z,80.82
2017-12-17T11:07:42.568Z,79.68
2017-12-17T11:13:46.079Z,79.76
2017-12-17T11:19:49.593Z,80.31
2017-12-17T11:25:53.360Z,80.07
2017-12-17T11:31:56.886Z,79.86
2017-12-17T11:38:00.690Z,78.60
2017-12-17T11:44:04.231Z,78.35
2017-12-17T11:50:07.760Z,78.61
2017-12-17T11:56:11.242Z,77.92
2017-12-17T12:02:14.835Z,77.64
2017-12-17T12:08:18.888Z,79.00
2017-12-17T12:14:23.080Z,78.85
2017-12-17T12:20:27.680Z,78.97
2017-12-17T12:26:31.178Z,78.92
2017-12-17T12:32:34.716Z,78.67
2017-12-17T12:38:38.237Z,79.16
2017-12-17T12:44:42.590Z,79.27
2017-12-17T12:50:46.181Z,77.65
2017-12-17T12:56:49.708Z,77.73
2017-12-17T13:02:53.436Z,77.80
2017-12-17T13:08:57.347Z,76.68
2017-12-17T13:15:01.614Z,75.56
2017-12-17T13:21:05.898Z,74.30
2017-12-17T13:27:09.724Z,74.68
2017-12-17T13:33:13.321Z,76.54
2017-12-17T13:39:16.962Z,76.94
2017-12-17T13:45:21.234Z,77.04
2017-12-17T13:51:25.169Z,76.78
2017-12-17T13:57:28.671Z,76.07
2017-12-17T14:03:32.463Z,75.50
2017-12-17T14:09:36.220Z,74.57
2017-12-17T14:15:39.736Z,74.29
2017-12-17T14:21:43.301Z,74.59
2017-12-17T14:27:47.093Z,73.97
2017-12-17T14:33:51.069Z,73.93
2017-12-17T14:39:54.792Z,73.56
2017-12-17T14:45:59.440Z,73.33
2017-12-17T14:52:03.699Z,72.66
2017-12-17T14:58:07.198Z,73.75
2017-12-17T15:04:10.694Z,74.37
2017-12-17T15:10:14.199Z,75.05
2017-12-17T15:16:17.714Z,75.79
2017-12-17T15:22:21.276Z,76.80
2017-12-17T15:28:25.570Z,78.00
2017-12-17T15:34:29.827Z,78.91
2017-12-17T15:40:34.103Z,79.34
2017-12-17T15:46:38.551Z,79.73
2017-12-17T15:52:42.078Z,80.07
2017-12-17T15:58:45.639Z,80.70
2017-12-17T16:04:49.172Z,81.14
2017-12-17T16:10:53.326Z,81.49
2017-12-17T16:16:57.116Z,81.93
2017-12-17T16:23:01.578Z,82.11
2017-12-17T16:29:05.086Z,82.07
2017-12-17T16:35:08.790Z,81.97
2017-12-17T16:41:12.309Z,81.97
2017-12-17T16:47:15.866Z,82.00
2017-12-17T16:53:20.325Z,81.88
2017-12-17T16:59:24.793Z,82.48
2017-12-17T17:05:28.393Z,82.60
2017-12-17T17:11:32.695Z,82.85
2017-12-17T17:17:36.207Z,84.07
2017-12-17T17:23:40.481Z,84.92
2017-12-17T17:29:44.743Z,85.41
2017-12-17T17:35:49.024Z,85.87
2017-12-17T17:41:52.771Z,86.16
2017-12-17T17:47:56.604Z,86.41
2017-12-17T17:54:00.131Z,85.67
2017-12-17T18:00:03.784Z,86.03
2017-12-17T18:06:07.571Z,87.08
2017-12-17T18:12:11.108Z,87.88
2017-12-17T18:18:14.621Z,87.42
2017-12-17T18:24:18.224Z,87.35
2017-12-17T18:30:22.741Z,87.62
2017-12-17T18:36:26.449Z,87.95
2017-12-17T18:42:29.984Z,88.10
2017-12-17T18:48:34.322Z,88.09
2017-12-17T18:54:37.873Z,87.90
2017-12-17T19:00:41.416Z,87.84
2017-12-17T19:06:44.917Z,87.51
2017-12-17T19:12:49.211Z,87.65
2017-12-17T19:18:52.876Z,87.52
2017-12-17T19:24:56.783Z,87.48
2017-12-17T19:31:01.868Z,87.66
2017-12-17T19:37:05.394Z,87.67
2017-12-17T19:43:09.044Z,87.87
2017-12-17T19:49:12.585Z,88.09
2017-12-17T19:55:16.115Z,88.25
2017-12-17T20:01:20.989Z,88.33
2017-12-17T20:07:24.849Z,88.16
2017-12-17T20:13:28.456Z,88.44
2017-12-17T20:19:32.161Z,88.87
2017-12-17T20:25:35.706Z,88.93
2017-12-17T20:31:39.222Z,88.86
2017-12-17T20:37:42.741Z,89.07
2017-12-17T20:43:46.372Z,88.77
2017-12-17T20:49:49.984Z,88.86
2017-12-17T20:55:53.800Z,88.50
2017-12-17T21:01:57.391Z,88.55
2017-12-17T21:08:01.669Z,88.61
2017-12-17T21:14:05.902Z,89.09
2017-12-17T21:20:09.361Z,89.12
2017-12-17T21:26:12.833Z,88.44
2017-12-17T21:32:17.071Z,88.41
2017-12-17T21:38:20.568Z,88.12
2017-12-17T21:44:24.296Z,88.40
2017-12-17T21:50:27.894Z,88.34
2017-12-17T21:56:31.382Z,87.84
2017-12-17T22:02:34.870Z,87.85
2017-12-17T22:08:38.438Z,87.43
2017-12-17T22:14:42.694Z,87.31
2017-12-17T22:20:46.263Z,87.51
2017-12-17T22:26:50.958Z,87.10
2017-12-17T22:32:54.719Z,87.54
2017-12-17T22:38:58.990Z,86.73
2017-12-17T22:45:03.234Z,86.41
2017-12-17T22:51:06.842Z,86.81
2017-12-17T22:57:10.345Z,87.26
2017-12-17T23:03:13.816Z,87.70
2017-12-17T23:09:18.088Z,88.12
2017-12-17T23:15:22.475Z,88.33
2017-12-17T23:21:25.967Z,88.36
2017-12-17T23:27:29.623Z,88.41
2017-12-17T23:33:33.109Z,88.20
2017-12-17T23:39:36.778Z,88.20
2017-12-17T23:45:40.234Z,88.42
2017-12-17T23:51:44.746Z,88.10
2017-12-17T23:57:48.206Z,87.98
